createdAt,value
2022-07-25T00:03:52.054Z,66.70
2022-07-25T00:09:05.746Z,66.69
2022-07-25T00:14:16.484Z,66.80
2022-07-25T00:19:27.095Z,66.86
2022-07-25T00:24:34.681Z,66.88
2022-07-25T00:29:44.486Z,66.87
2022-07-25T00:34:54.365Z,67.01
2022-07-25T00:40:02.952Z,67.17
2022-07-25T00:45:13.790Z,67.41
2022-07-25T00:50:23.707Z,67.49
2022-07-25T00:55:42.377Z,67.38
2022-07-25T01:00:49.999Z,67.55
2022-07-25T01:06:00.679Z,67.69
2022-07-25T01:11:11.871Z,67.71
2022-07-25T01:16:19.391Z,67.93
2022-07-25T01:21:28.301Z,67.91
2022-07-25T01:26:35.953Z,67.86
2022-07-25T01:31:43.235Z,68.02
2022-07-25T01:36:53.756Z,68.10
2022-07-25T01:42:01.188Z,68.08
2022-07-25T01:47:08.934Z,68.19
2022-07-25T01:52:27.774Z,68.31
2022-07-25T01:57:36.266Z,68.45
2022-07-25T02:03:13.763Z,68.51
2022-07-25T02:08:21.345Z,68.62
2022-07-25T02:13:29.816Z,68.74
2022-07-25T02:18:40.154Z,68.73
2022-07-25T02:23:47.564Z,68.68
2022-07-25T02:28:55.959Z,68.87
2022-07-25T02:34:05.064Z,69.10
2022-07-25T02:39:12.654Z,68.96
2022-07-25T02:44:20.133Z,69.06
2022-07-25T02:49:27.472Z,69.17
2022-07-25T02:54:37.358Z,69.26
2022-07-25T02:59:44.798Z,69.36
2022-07-25T03:04:52.327Z,69.33
2022-07-25T03:09:59.673Z,69.41
2022-07-25T03:15:09.264Z,69.53
2022-07-25T03:20:19.773Z,69.71
2022-07-25T03:25:27.239Z,69.72
2022-07-25T03:30:35.222Z,69.71
2022-07-25T03:35:41.340Z,69.73
2022-07-25T03:40:48.737Z,69.89
2022-07-25T03:45:56.231Z,69.84
2022-07-25T03:51:07.065Z,69.84
2022-07-25T03:56:28.782Z,69.99
2022-07-25T04:01:36.942Z,69.96
2022-07-25T04:06:45.044Z,69.84
2022-07-25T04:11:55.669Z,69.49
2022-07-25T04:17:06.549Z,69.11
2022-07-25T04:22:14.216Z,68.79
2022-07-25T04:27:21.950Z,68.56
2022-07-25T04:32:27.793Z,68.31
2022-07-25T04:37:39.420Z,68.03
2022-07-25T04:42:47.263Z,67.74
2022-07-25T04:47:55.075Z,67.81
2022-07-25T04:53:03.379Z,66.98
2022-07-25T04:58:13.109Z,66.27
2022-07-25T05:03:23.453Z,65.48
2022-07-25T05:08:30.798Z,65.35
2022-07-25T05:13:38.531Z,64.72
2022-07-25T05:18:45.975Z,64.04
2022-07-25T05:23:56.621Z,63.99
2022-07-25T05:29:04.929Z,63.82
2022-07-25T05:34:15.680Z,63.32
2022-07-25T05:39:23.341Z,62.64
2022-07-25T05:44:34.452Z,61.93
2022-07-25T05:49:45.988Z,61.32
2022-07-25T05:54:53.881Z,60.92
2022-07-25T06:00:17.232Z,60.25
2022-07-25T06:05:25.306Z,59.67
2022-07-25T06:10:35.762Z,58.95
2022-07-25T06:16:29.981Z,58.45
2022-07-25T06:21:48.995Z,58.03
2022-07-25T06:26:56.970Z,57.15
2022-07-25T06:32:04.919Z,56.75
2022-07-25T06:37:13.053Z,56.31
2022-07-25T06:42:21.179Z,55.86
2022-07-25T06:47:35.524Z,55.45
2022-07-25T06:52:43.977Z,54.78
2022-07-25T06:57:51.878Z,53.63
2022-07-25T07:03:04.831Z,52.92
2022-07-25T07:08:12.706Z,52.39
2022-07-25T07:13:31.573Z,51.81
2022-07-25T07:18:49.074Z,50.99
2022-07-25T07:24:24.141Z,50.34
2022-07-25T07:29:39.299Z,49.70
2022-07-25T07:35:07.107Z,49.04
2022-07-25T07:40:20.745Z,48.46
2022-07-25T07:45:32.499Z,48.02
2022-07-25T07:50:50.702Z,47.39
2022-07-25T07:56:07.055Z,47.01
2022-07-25T08:01:15.261Z,46.39
2022-07-25T08:06:28.283Z,45.77
2022-07-25T08:11:42.830Z,45.27
2022-07-25T08:16:58.619Z,44.68
2022-07-25T08:22:56.355Z,44.06
2022-07-25T08:28:13.487Z,44.17
2022-07-25T08:33:21.789Z,43.92
2022-07-25T08:38:30.605Z,43.68
2022-07-25T08:43:59.042Z,43.97
2022-07-25T08:49:08.329Z,43.87
2022-07-25T08:54:20.211Z,43.60
2022-07-25T08:59:49.910Z,43.61
2022-07-25T09:05:00.442Z,43.31
2022-07-25T09:10:33.962Z,43.11
2022-07-25T09:15:56.905Z,43.09
2022-07-25T09:21:25.500Z,42.74
2022-07-25T09:26:52.033Z,42.96
2022-07-25T09:32:15.342Z,42.81
2022-07-25T09:37:30.404Z,42.70
2022-07-25T09:42:46.459Z,42.43
2022-07-25T09:47:59.744Z,42.51
2022-07-25T09:53:10.235Z,42.29
2022-07-25T09:58:20.095Z,41.79
2022-07-25T10:03:54.259Z,41.61
2022-07-25T10:09:02.147Z,41.46
2022-07-25T10:14:17.488Z,41.13
2022-07-25T10:19:55.387Z,40.92
2022-07-25T10:25:15.328Z,40.81
2022-07-25T10:30:38.653Z,40.67
2022-07-25T10:36:11.523Z,40.61
2022-07-25T10:41:40.034Z,40.48
2022-07-25T10:46:49.314Z,40.38
2022-07-25T10:52:00.008Z,40.28
2022-07-25T10:57:32.274Z,40.15
2022-07-25T11:02:43.292Z,40.00
2022-07-25T11:08:21.728Z,39.83
2022-07-25T11:20:41.764Z,39.29
2022-07-25T11:26:15.071Z,39.29
2022-07-25T11:31:58.212Z,39.10
2022-07-25T11:37:25.818Z,38.76
2022-07-25T11:50:21.104Z,38.52
2022-07-25T11:55:48.087Z,38.45
2022-07-25T12:01:17.612Z,38.15
2022-07-25T12:06:32.973Z,37.57
2022-07-25T12:12:07.246Z,37.48
2022-07-25T12:17:20.049Z,37.44
2022-07-25T12:22:31.608Z,37.37
2022-07-25T12:27:40.623Z,37.03
2022-07-25T12:33:09.508Z,36.92
2022-07-25T12:38:22.772Z,36.73
2022-07-25T12:43:54.292Z,36.72
2022-07-25T12:49:32.908Z,36.50
2022-07-25T12:55:16.736Z,36.40
2022-07-25T13:07:40.621Z,36.08
2022-07-25T13:13:21.790Z,35.92
2022-07-25T13:19:18.834Z,35.91
2022-07-25T13:24:49.794Z,35.72
2022-07-25T13:30:19.539Z,35.58
2022-07-25T13:35:38.768Z,35.60
2022-07-25T13:41:01.008Z,35.43
2022-07-25T13:46:09.843Z,35.39
2022-07-25T13:51:23.866Z,35.37
2022-07-25T13:56:42.888Z,35.05
2022-07-25T14:01:55.558Z,34.96
2022-07-25T14:07:15.377Z,35.03
2022-07-25T14:12:44.737Z,34.88
2022-07-25T14:17:55.939Z,34.75
2022-07-25T14:23:04.573Z,34.48
2022-07-25T14:28:16.095Z,34.34
2022-07-25T14:33:48.679Z,34.41
2022-07-25T14:39:22.032Z,34.19
2022-07-25T14:44:37.251Z,34.13
2022-07-25T14:49:47.428Z,34.07
2022-07-25T14:55:17.472Z,33.91
2022-07-25T15:00:42.800Z,33.94
2022-07-25T15:05:51.820Z,33.78
2022-07-25T15:11:03.839Z,33.59
2022-07-25T15:16:18.145Z,33.51
2022-07-25T15:21:29.630Z,33.48
2022-07-25T15:26:37.634Z,33.41
2022-07-25T15:31:46.116Z,33.45
2022-07-25T15:36:55.464Z,33.34
2022-07-25T15:42:06.193Z,33.28
2022-07-25T15:47:14.068Z,33.21
2022-07-25T15:52:27.600Z,33.14
2022-07-25T15:57:59.172Z,33.09
2022-07-25T16:03:09.816Z,33.02
2022-07-25T16:08:26.568Z,32.85
2022-07-25T16:13:35.477Z,32.89
2022-07-25T16:18:48.132Z,32.87
2022-07-25T16:23:56.181Z,32.73
2022-07-25T16:29:12.255Z,32.68
2022-07-25T16:34:20.101Z,32.66
2022-07-25T16:39:30.570Z,32.76
2022-07-25T16:44:38.510Z,32.76
2022-07-25T16:49:46.501Z,32.87
2022-07-25T16:54:54.130Z,32.85
2022-07-25T17:00:02.263Z,32.84
2022-07-25T17:05:11.364Z,32.88
2022-07-25T17:10:22.131Z,32.84
2022-07-25T17:15:29.460Z,32.73
2022-07-25T17:20:36.838Z,32.84
2022-07-25T17:25:50.039Z,32.95
2022-07-25T17:30:58.075Z,32.99
2022-07-25T17:36:06.177Z,32.94
2022-07-25T17:41:16.704Z,33.01
2022-07-25T17:46:31.742Z,33.16
2022-07-25T17:51:42.582Z,32.99
2022-07-25T17:56:51.882Z,33.25
2022-07-25T18:02:02.655Z,33.13
2022-07-25T18:07:11.159Z,33.27
2022-07-25T18:12:29.488Z,33.46
2022-07-25T18:17:57.745Z,33.57
2022-07-25T18:23:09.591Z,33.60
2022-07-25T18:28:22.034Z,33.50
2022-07-25T18:33:37.406Z,33.65
2022-07-25T18:38:45.403Z,33.81
2022-07-25T18:43:57.967Z,34.13
2022-07-25T18:49:07.534Z,34.27
2022-07-25T18:54:15.780Z,34.37
2022-07-25T18:59:24.531Z,34.46
2022-07-25T19:04:38.540Z,34.70
2022-07-25T19:09:46.485Z,34.84
2022-07-25T19:14:59.654Z,35.07
2022-07-25T19:20:10.596Z,35.16
2022-07-25T19:25:40.011Z,35.42
2022-07-25T19:30:54.531Z,35.80
2022-07-25T19:36:09.577Z,35.95
2022-07-25T19:41:20.368Z,36.27
2022-07-25T19:46:33.710Z,36.28
2022-07-25T19:52:02.113Z,36.45
2022-07-25T19:57:21.581Z,36.77
2022-07-25T20:02:38.755Z,37.19
2022-07-25T20:07:52.254Z,37.34
2022-07-25T20:13:08.480Z,37.61
2022-07-25T20:18:19.748Z,37.66
2022-07-25T20:23:38.439Z,37.91
2022-07-25T20:28:55.085Z,38.15
2022-07-25T20:34:19.613Z,38.43
2022-07-25T20:39:35.905Z,38.73
2022-07-25T20:44:48.872Z,39.02
2022-07-25T20:50:00.233Z,39.15
2022-07-25T20:55:14.224Z,39.22
2022-07-25T21:00:28.044Z,39.88
2022-07-25T21:05:46.529Z,40.10
2022-07-25T21:11:05.405Z,40.47
2022-07-25T21:16:36.942Z,40.76
2022-07-25T21:21:53.676Z,40.85
2022-07-25T21:27:11.644Z,41.13
2022-07-25T21:32:22.390Z,41.44
2022-07-25T21:37:32.609Z,41.70
2022-07-25T21:42:40.326Z,41.96
2022-07-25T21:47:55.514Z,42.38
2022-07-25T21:53:14.129Z,42.38
2022-07-25T21:58:22.150Z,42.74
2022-07-25T22:03:33.813Z,42.98
2022-07-25T22:08:50.946Z,43.06
2022-07-25T22:13:58.809Z,43.43
2022-07-25T22:19:07.270Z,43.74
2022-07-25T22:24:15.477Z,43.73
2022-07-25T22:29:23.296Z,44.07
2022-07-25T22:34:32.506Z,44.22
2022-07-25T22:39:42.976Z,44.28
2022-07-25T22:44:54.118Z,44.63
2022-07-25T22:50:02.500Z,44.85
2022-07-25T22:55:17.895Z,45.00
2022-07-25T23:00:28.164Z,45.04
2022-07-25T23:05:40.375Z,45.23
2022-07-25T23:10:48.344Z,45.57
2022-07-25T23:15:57.846Z,45.55
2022-07-25T23:21:14.917Z,45.78
2022-07-25T23:26:23.684Z,45.90
2022-07-25T23:31:34.511Z,45.96
2022-07-25T23:36:45.389Z,46.25
2022-07-25T23:41:59.694Z,46.32
2022-07-25T23:47:16.562Z,46.48
2022-07-25T23:52:30.082Z,46.82
2022-07-25T23:57:38.068Z,46.81
